createdAt,value
2018-01-06T00:00:22.052Z,29.2
2018-01-06T00:01:22.029Z,29.2
2018-01-06T00:02:25.026Z,29.2
2018-01-06T00:03:21.778Z,29.2
2018-01-06T00:04:21.831Z,29.2
2018-01-06T00:05:21.824Z,29.2
2018-01-06T00:06:22.343Z,29.2
2018-01-06T00:07:24.857Z,29.2
2018-01-06T00:08:22.087Z,29.2
2018-01-06T00:09:22.248Z,29.2
2018-01-06T00:10:22.561Z,29.2
2018-01-06T00:11:22.255Z,29.2
2018-01-06T00:12:22.390Z,29.2
2018-01-06T00:13:22.509Z,29.2
2018-01-06T00:14:22.594Z,29.2
2018-01-06T00:15:22.586Z,29.2
2018-01-06T00:16:22.651Z,29.2
2018-01-06T00:17:25.868Z,29.1
2018-01-06T00:18:22.987Z,29.2
2018-01-06T00:19:22.677Z,29.2
2018-01-06T00:20:25.644Z,29.2
2018-01-06T00:21:23.109Z,29.2
2018-01-06T00:22:26.094Z,29.1
2018-01-06T00:23:22.908Z,29.2
2018-01-06T00:24:23.340Z,29.2
2018-01-06T00:25:23.439Z,29.2
2018-01-06T00:26:26.390Z,29.2
2018-01-06T00:27:23.558Z,29.2
2018-01-06T00:28:23.639Z,29.2
2018-01-06T00:29:23.327Z,29.1
2018-01-06T00:30:23.755Z,29.2
2018-01-06T00:31:23.792Z,29.2
2018-01-06T00:32:26.736Z,29.2
2018-01-06T00:33:26.750Z,29.2
2018-01-06T00:34:26.468Z,29.1
2018-01-06T00:35:26.588Z,29.2
2018-01-06T00:36:24.016Z,29.1
2018-01-06T00:37:26.599Z,29.2
2018-01-06T00:38:23.714Z,29.2
2018-01-06T00:39:24.059Z,29.2
2018-01-06T00:40:23.839Z,29.2
2018-01-06T00:41:26.731Z,29.2
2018-01-06T00:42:23.919Z,29.2
2018-01-06T00:43:23.991Z,29.2
2018-01-06T00:44:27.210Z,29.2
2018-01-06T00:45:27.267Z,29.1
2018-01-06T00:46:24.181Z,29.1
2018-01-06T00:47:24.500Z,29.1
2018-01-06T00:48:27.460Z,29.1
2018-01-06T00:49:24.543Z,29.1
2018-01-06T00:50:24.551Z,29.1
2018-01-06T00:51:27.463Z,29.1
2018-01-06T00:52:24.631Z,29.1
2018-01-06T00:53:24.389Z,29.1
2018-01-06T00:54:24.707Z,29.1
2018-01-06T00:55:24.751Z,29.1
2018-01-06T00:56:24.454Z,29.1
2018-01-06T00:57:24.423Z,29.1
2018-01-06T00:58:27.421Z,29.1
2018-01-06T00:59:24.591Z,29.1
2018-01-06T01:00:24.619Z,29.1
2018-01-06T01:01:27.554Z,29.1
2018-01-06T01:02:27.604Z,29.1
2018-01-06T01:03:27.868Z,29.1
2018-01-06T01:04:24.724Z,29.1
2018-01-06T01:05:27.973Z,29.1
2018-01-06T01:06:24.733Z,29.1
2018-01-06T01:07:24.829Z,29.1
2018-01-06T01:08:28.108Z,29.1
2018-01-06T01:09:28.190Z,29.1
2018-01-06T01:10:25.103Z,29.1
2018-01-06T01:11:28.337Z,29.1
2018-01-06T01:12:25.221Z,29.1
2018-01-06T01:13:28.495Z,29.1
2018-01-06T01:14:25.705Z,29.1
2018-01-06T01:15:25.379Z,29.1
2018-01-06T01:16:25.680Z,29.1
2018-01-06T01:17:28.750Z,29.1
2018-01-06T01:18:28.752Z,29.1
2018-01-06T01:19:25.640Z,29.1
2018-01-06T01:20:25.655Z,29.1
2018-01-06T01:21:28.576Z,29.1
2018-01-06T01:22:28.972Z,29.1
2018-01-06T01:23:25.842Z,29.1
2018-01-06T01:24:29.080Z,29
2018-01-06T01:25:28.788Z,29.1
2018-01-06T01:26:29.288Z,29
2018-01-06T01:27:26.310Z,29.1
2018-01-06T01:28:28.959Z,29.1
2018-01-06T01:29:26.499Z,29
2018-01-06T01:30:26.522Z,29.1
2018-01-06T01:31:26.579Z,29.1
2018-01-06T01:32:26.628Z,29.1
2018-01-06T01:33:29.220Z,29.1
2018-01-06T01:34:26.373Z,29.1
2018-01-06T01:35:29.778Z,29.1
2018-01-06T01:36:29.464Z,29.1
2018-01-06T01:37:29.926Z,29.1
2018-01-06T01:38:26.653Z,29.1
2018-01-06T01:39:26.662Z,29.1
2018-01-06T01:40:26.738Z,29.1
2018-01-06T01:41:29.628Z,29.1
2018-01-06T01:42:26.765Z,29.1
2018-01-06T01:43:30.068Z,29.1
2018-01-06T01:44:27.181Z,29.1
2018-01-06T01:45:27.164Z,29
2018-01-06T01:46:27.253Z,29.1
2018-01-06T01:47:26.958Z,29
2018-01-06T01:48:27.322Z,29.1
2018-01-06T01:49:30.283Z,29.1
2018-01-06T01:50:27.100Z,29.1
2018-01-06T01:51:30.380Z,29
2018-01-06T01:52:27.469Z,29.1
2018-01-06T01:53:30.434Z,29
2018-01-06T01:54:27.198Z,29.1
2018-01-06T01:55:27.574Z,29.1
2018-01-06T01:56:30.446Z,29.1
2018-01-06T01:57:30.505Z,29.1
2018-01-06T01:58:27.692Z,29.1
2018-01-06T01:59:30.217Z,29.1
2018-01-06T02:00:27.685Z,29
2018-01-06T02:01:30.594Z,29.1
2018-01-06T02:02:27.550Z,29.1
2018-01-06T02:03:30.804Z,29.1
2018-01-06T02:04:27.691Z,29.1
2018-01-06T02:05:30.936Z,29.1
2018-01-06T02:06:27.764Z,29.1
2018-01-06T02:07:28.266Z,29
2018-01-06T02:08:27.893Z,29.1
2018-01-06T02:09:27.943Z,29.1
2018-01-06T02:10:27.958Z,29.1
2018-01-06T02:11:31.216Z,29.1
2018-01-06T02:12:28.351Z,29.1
2018-01-06T02:13:31.266Z,29
2018-01-06T02:14:28.478Z,29.1
2018-01-06T02:15:31.482Z,29
2018-01-06T02:16:28.578Z,29.1
2018-01-06T02:17:31.180Z,29
2018-01-06T02:18:31.622Z,29.1
2018-01-06T02:19:28.467Z,29.1
2018-01-06T02:20:31.726Z,29
2018-01-06T02:21:28.867Z,29
2018-01-06T02:22:28.610Z,29
2018-01-06T02:23:28.689Z,29
2018-01-06T02:24:31.652Z,29
2018-01-06T02:25:32.022Z,29
2018-01-06T02:26:28.861Z,29
2018-01-06T02:27:32.005Z,29
2018-01-06T02:28:28.909Z,29
2018-01-06T02:29:31.763Z,29
2018-01-06T02:30:29.274Z,29
2018-01-06T02:31:28.977Z,29
2018-01-06T02:32:29.008Z,29
2018-01-06T02:33:29.324Z,29
2018-01-06T02:34:29.371Z,29
2018-01-06T02:35:29.451Z,29
2018-01-06T02:36:29.169Z,29
2018-01-06T02:37:32.146Z,29
2018-01-06T02:38:29.294Z,29
2018-01-06T02:39:32.634Z,29
2018-01-06T02:40:29.510Z,29
2018-01-06T02:41:29.524Z,29
2018-01-06T02:42:29.588Z,29
2018-01-06T02:43:32.814Z,29
2018-01-06T02:44:29.611Z,29
2018-01-06T02:45:29.728Z,29
2018-01-06T02:46:29.789Z,28.9
2018-01-06T02:47:30.117Z,29
2018-01-06T02:48:33.092Z,29
2018-01-06T02:49:33.181Z,29
2018-01-06T02:50:30.257Z,29
2018-01-06T02:51:30.068Z,29
2018-01-06T02:52:30.329Z,29
2018-01-06T02:53:30.349Z,29
2018-01-06T02:54:30.487Z,29
2018-01-06T02:55:33.419Z,29
2018-01-06T02:56:30.238Z,29
2018-01-06T02:57:33.144Z,29
2018-01-06T02:58:30.643Z,29
2018-01-06T02:59:30.714Z,29
2018-01-06T03:00:30.768Z,29
2018-01-06T03:01:33.709Z,29
2018-01-06T03:02:33.727Z,29
2018-01-06T03:03:30.824Z,28.9
2018-01-06T03:46:52.507Z,28.6
2018-01-06T03:47:55.460Z,28.7
2018-01-06T03:48:52.578Z,28.7
2018-01-06T03:49:55.501Z,28.7
2018-01-06T03:50:55.161Z,28.7
2018-01-06T03:51:52.367Z,28.8
2018-01-06T03:52:52.436Z,28.8
2018-01-06T03:53:55.426Z,28.8
2018-01-06T03:54:55.792Z,28.8
2018-01-06T03:55:55.528Z,28.8
2018-01-06T03:56:52.720Z,28.8
2018-01-06T03:57:53.010Z,28.8
2018-01-06T03:58:55.717Z,28.8
2018-01-06T03:59:52.865Z,28.8
2018-01-06T04:00:53.242Z,28.9
2018-01-06T04:01:52.958Z,28.9
2018-01-06T04:02:52.998Z,28.9
2018-01-06T04:03:56.220Z,28.9
2018-01-06T04:04:56.298Z,28.9
2018-01-06T04:05:53.116Z,28.8
2018-01-06T04:06:53.209Z,28.9
2018-01-06T04:07:53.556Z,28.8
2018-01-06T04:08:56.457Z,28.9
2018-01-06T04:09:56.527Z,28.9
2018-01-06T04:10:53.329Z,28.9
2018-01-06T04:11:56.587Z,28.9
2018-01-06T04:12:53.471Z,28.9
2018-01-06T04:13:56.734Z,28.9
2018-01-06T04:14:56.761Z,28.9
2018-01-06T04:15:56.873Z,28.9
2018-01-06T04:16:54.006Z,28.9
2018-01-06T04:17:53.767Z,28.8
2018-01-06T04:18:56.978Z,28.9
2018-01-06T04:19:54.072Z,28.9
2018-01-06T04:20:57.014Z,28.8
2018-01-06T04:21:53.912Z,28.9
2018-01-06T04:22:53.959Z,28.9
2018-01-06T04:23:54.256Z,28.9
2018-01-06T04:24:56.904Z,28.9
2018-01-06T04:25:57.310Z,28.9
2018-01-06T04:26:54.027Z,28.9
2018-01-06T04:27:57.017Z,28.9
2018-01-06T04:28:57.062Z,28.9
2018-01-06T04:29:57.176Z,28.9
2018-01-06T04:30:54.309Z,28.9
2018-01-06T04:31:57.547Z,28.8
2018-01-06T04:32:54.751Z,28.9
2018-01-06T04:33:54.481Z,28.9
2018-01-06T04:34:57.328Z,28.8
2018-01-06T04:35:57.732Z,28.9
2018-01-06T04:36:54.777Z,28.9
2018-01-06T04:37:54.886Z,28.9
2018-01-06T04:38:57.791Z,28.8
2018-01-06T04:39:57.877Z,28.8
2018-01-06T04:40:54.700Z,28.8
2018-01-06T04:41:55.056Z,28.9
2018-01-06T04:42:55.089Z,28.9
2018-01-06T04:43:58.090Z,28.8
2018-01-06T04:44:58.148Z,28.8
2018-01-06T04:45:54.995Z,28.9
2018-01-06T04:46:57.888Z,28.9
2018-01-06T04:47:55.002Z,28.8
2018-01-06T04:48:57.978Z,28.8
2018-01-06T04:49:55.482Z,28.8
2018-01-06T04:50:58.101Z,28.9
2018-01-06T04:52:00.820Z,28.9
2018-01-06T04:52:55.545Z,28.8
2018-01-06T04:53:58.482Z,28.8
2018-01-06T04:54:55.251Z,28.9
2018-01-06T04:55:55.421Z,28.8
2018-01-06T04:56:58.329Z,28.8
2018-01-06T04:57:58.331Z,28.8
2018-01-06T04:58:55.871Z,28.8
2018-01-06T04:59:58.448Z,28.8
2018-01-06T05:00:58.570Z,28.8
2018-01-06T05:01:58.938Z,28.8
2018-01-06T05:02:55.807Z,28.8
2018-01-06T05:03:55.852Z,28.8
2018-01-06T05:04:58.716Z,28.8
2018-01-06T05:05:55.903Z,28.8
2018-01-06T05:06:56.029Z,28.8
2018-01-06T05:07:58.953Z,28.8
2018-01-06T05:08:56.124Z,28.8
2018-01-06T05:09:59.452Z,28.8
2018-01-06T05:10:59.112Z,28.8
2018-01-06T05:11:56.622Z,28.8
2018-01-06T05:12:59.266Z,28.8
2018-01-06T05:13:59.641Z,28.8
2018-01-06T05:14:59.323Z,28.8
2018-01-06T05:15:56.548Z,28.8
2018-01-06T05:16:56.537Z,28.8
2018-01-06T05:17:59.577Z,28.8
2018-01-06T05:18:56.703Z,28.8
2018-01-06T05:20:00.053Z,28.8
2018-01-06T05:21:00.159Z,28.8
2018-01-06T05:21:57.294Z,28.8
2018-01-06T05:22:57.352Z,28.8
2018-01-06T05:23:57.413Z,28.8
2018-01-06T05:25:00.415Z,28.8
2018-01-06T05:25:57.372Z,28.8
2018-01-06T05:27:00.467Z,28.8
2018-01-06T05:28:00.506Z,28.8
2018-01-06T05:29:00.280Z,28.8
2018-01-06T05:29:57.736Z,28.8
2018-01-06T05:30:57.771Z,28.8
2018-01-06T05:31:57.495Z,28.8
2018-01-06T05:32:57.556Z,28.8
2018-01-06T05:34:00.852Z,28.8
2018-01-06T05:35:00.926Z,28.8
2018-01-06T05:36:00.980Z,28.8
2018-01-06T05:36:58.091Z,28.8
2018-01-06T05:38:01.308Z,28.8
2018-01-06T05:38:58.193Z,28.8
2018-01-06T05:40:01.202Z,28.8
2018-01-06T05:40:58.268Z,28.8
2018-01-06T05:41:58.254Z,28.8
2018-01-06T05:43:01.229Z,28.8
2018-01-06T05:44:00.927Z,28.8
2018-01-06T05:44:58.416Z,28.8
2018-01-06T05:45:58.158Z,28.8
2018-01-06T05:46:58.222Z,28.8
2018-01-06T05:47:58.237Z,28.8
2018-01-06T05:48:58.258Z,28.8
2018-01-06T05:49:58.351Z,28.8
2018-01-06T05:50:58.403Z,28.8
2018-01-06T05:52:01.709Z,28.8
2018-01-06T05:52:58.567Z,28.8
2018-01-06T05:53:58.926Z,28.8
2018-01-06T05:55:01.837Z,28.8
2018-01-06T05:55:58.582Z,28.8
2018-01-06T05:56:58.684Z,28.8
2018-01-06T05:57:59.039Z,28.8
2018-01-06T05:58:58.815Z,28.7
2018-01-06T06:00:02.109Z,28.8
2018-01-06T06:00:58.994Z,28.8
2018-01-06T06:01:58.941Z,28.8
2018-01-06T06:03:02.177Z,28.8
2018-01-06T06:04:01.961Z,28.7
2018-01-06T06:05:01.936Z,28.8
2018-01-06T06:06:02.340Z,28.8
2018-01-06T06:06:59.279Z,28.7
2018-01-06T06:08:02.486Z,28.8
2018-01-06T06:09:02.417Z,28.8
2018-01-06T06:10:02.533Z,28.8
2018-01-06T06:10:59.708Z,28.8
2018-01-06T06:11:59.731Z,28.8
2018-01-06T06:12:59.504Z,28.8
2018-01-06T06:14:02.684Z,28.8
2018-01-06T06:14:59.865Z,28.8
2018-01-06T06:15:59.647Z,28.8
2018-01-06T06:17:02.907Z,28.8
2018-01-06T06:17:59.759Z,28.8
2018-01-06T06:18:59.741Z,28.8
2018-01-06T06:20:03.073Z,28.8
2018-01-06T06:21:00.355Z,28.8
2018-01-06T06:21:59.992Z,28.8
2018-01-06T06:23:03.254Z,28.7
2018-01-06T06:24:03.294Z,28.7
2018-01-06T06:25:00.171Z,28.8
2018-01-06T06:26:00.448Z,28.8
2018-01-06T06:27:03.060Z,28.7
2018-01-06T06:28:00.200Z,28.7
2018-01-06T06:29:00.238Z,28.8
2018-01-06T06:30:00.608Z,28.8
2018-01-06T06:31:00.426Z,28.7
2018-01-06T06:32:00.757Z,28.8
2018-01-06T06:33:00.445Z,28.8
2018-01-06T06:34:03.657Z,28.8
2018-01-06T06:35:00.572Z,28.8
2018-01-06T06:36:00.578Z,28.7
2018-01-06T06:37:00.869Z,28.8
2018-01-06T06:38:03.816Z,28.8
2018-01-06T06:39:00.628Z,28.8
2018-01-06T06:40:00.630Z,28.8
2018-01-06T06:41:00.672Z,28.7
2018-01-06T06:42:04.044Z,28.8
2018-01-06T06:43:00.809Z,28.8
2018-01-06T06:44:04.095Z,28.8
2018-01-06T06:45:03.790Z,28.8
2018-01-06T06:46:04.216Z,28.7
2018-01-06T06:47:03.908Z,28.8
2018-01-06T06:48:01.059Z,28.7
2018-01-06T06:49:01.516Z,28.7
2018-01-06T06:50:01.303Z,28.7
2018-01-06T06:51:01.296Z,28.7
2018-01-06T06:52:01.683Z,28.7
2018-01-06T06:53:04.652Z,28.7
2018-01-06T06:54:01.435Z,28.7
2018-01-06T06:55:04.322Z,28.7
2018-01-06T06:56:01.766Z,28.7
2018-01-06T06:57:01.481Z,28.7
2018-01-06T06:58:01.888Z,28.7
2018-01-06T06:59:04.930Z,28.7
2018-01-06T07:00:01.728Z,28.7
2018-01-06T07:01:04.979Z,28.7
2018-01-06T07:02:01.902Z,28.7
2018-01-06T07:03:02.153Z,28.7
2018-01-06T07:04:05.228Z,28.7
2018-01-06T07:05:04.913Z,28.7
2018-01-06T07:06:05.333Z,28.7
2018-01-06T07:07:05.302Z,28.7
2018-01-06T07:08:02.164Z,28.7
2018-01-06T07:09:02.247Z,28.7
2018-01-06T07:10:05.218Z,28.7
2018-01-06T07:11:02.410Z,28.7
2018-01-06T07:12:05.608Z,28.8
2018-01-06T07:13:02.744Z,28.8
2018-01-06T07:14:02.481Z,28.8
2018-01-06T07:15:02.559Z,28.8
2018-01-06T07:16:02.662Z,28.8
2018-01-06T07:17:05.856Z,28.8
2018-01-06T07:18:05.981Z,28.8
2018-01-06T07:19:03.176Z,28.7
2018-01-06T07:20:06.034Z,28.7
2018-01-06T07:21:02.949Z,28.7
2018-01-06T07:22:05.906Z,28.7
2018-01-06T07:23:03.463Z,28.7
2018-01-06T07:24:06.239Z,28.7
2018-01-06T07:25:03.144Z,28.7
2018-01-06T07:26:03.376Z,28.7
2018-01-06T07:27:06.103Z,28.7
2018-01-06T07:28:06.422Z,28.7
2018-01-06T07:29:06.212Z,28.7
2018-01-06T07:30:06.713Z,28.7
2018-01-06T07:31:03.540Z,28.7
2018-01-06T07:32:03.611Z,28.7
2018-01-06T07:33:03.635Z,28.7
2018-01-06T07:34:06.551Z,28.7
2018-01-06T07:35:07.003Z,28.7
2018-01-06T07:36:07.026Z,28.7
2018-01-06T07:37:07.068Z,28.7
2018-01-06T07:38:03.897Z,28.7
2018-01-06T07:39:06.774Z,28.7
2018-01-06T07:40:03.924Z,28.7
2018-01-06T07:41:07.217Z,28.7
2018-01-06T07:42:06.901Z,28.7
2018-01-06T07:43:07.332Z,28.7
2018-01-06T07:44:04.132Z,28.7
2018-01-06T07:45:07.105Z,28.7
2018-01-06T07:46:04.208Z,28.7
2018-01-06T07:47:04.237Z,28.7
2018-01-06T07:48:04.575Z,28.7
2018-01-06T07:49:04.650Z,28.7
2018-01-06T07:50:04.477Z,28.7
2018-01-06T07:51:07.410Z,28.7
2018-01-06T07:52:07.476Z,28.7
2018-01-06T07:53:04.972Z,28.7
2018-01-06T07:54:04.717Z,28.7
2018-01-06T07:55:04.798Z,28.8
2018-01-06T07:56:04.826Z,28.8
2018-01-06T07:57:05.390Z,28.8
2018-01-06T07:58:09.132Z,28.8
2018-01-06T07:59:08.483Z,28.8
2018-01-06T08:00:05.665Z,28.8
2018-01-06T08:01:05.495Z,28.8
2018-01-06T08:02:08.404Z,28.8
2018-01-06T08:03:08.808Z,28.8
2018-01-06T08:04:05.898Z,28.8
2018-01-06T08:05:05.633Z,28.7
2018-01-06T08:06:05.950Z,28.7
2018-01-06T08:07:08.881Z,28.7
2018-01-06T08:08:05.520Z,28.8
2018-01-06T08:09:05.473Z,28.7
2018-01-06T08:10:05.859Z,28.8
2018-01-06T08:11:05.561Z,28.8
2018-01-06T08:12:08.778Z,28.8
2018-01-06T08:13:05.608Z,28.7
2018-01-06T08:14:05.628Z,28.7
2018-01-06T08:15:08.930Z,28.8
2018-01-06T08:16:05.780Z,28.8
2018-01-06T08:17:09.085Z,28.8
2018-01-06T08:18:05.944Z,28.8
2018-01-06T08:19:09.094Z,28.8
2018-01-06T08:20:06.286Z,28.8
2018-01-06T08:21:08.961Z,28.8
2018-01-06T08:22:06.178Z,28.8
2018-01-06T08:23:09.391Z,28.8
2018-01-06T08:24:06.532Z,28.8
2018-01-06T08:25:06.618Z,28.8
2018-01-06T08:26:09.561Z,28.9
2018-01-06T08:27:09.577Z,28.9
2018-01-06T08:28:06.742Z,28.9
2018-01-06T08:29:09.572Z,28.8
2018-01-06T08:30:09.702Z,28.9
2018-01-06T08:31:06.787Z,28.9
2018-01-06T08:32:06.892Z,28.9
2018-01-06T08:33:09.797Z,28.9
2018-01-06T08:34:06.614Z,28.9
2018-01-06T08:35:06.986Z,28.9
2018-01-06T08:36:06.730Z,28.9
2018-01-06T08:37:09.960Z,28.9
2018-01-06T08:38:07.174Z,28.9
2018-01-06T08:39:10.138Z,28.9
2018-01-06T08:40:07.228Z,28.9
2018-01-06T08:41:06.979Z,29
2018-01-06T08:42:10.352Z,28.9
2018-01-06T08:43:10.398Z,29
2018-01-06T08:44:07.600Z,29
2018-01-06T08:45:10.477Z,28.9
2018-01-06T08:46:07.226Z,29
2018-01-06T08:47:07.298Z,29
2018-01-06T08:48:07.313Z,29
2018-01-06T08:49:07.584Z,29
2018-01-06T08:50:07.322Z,29
2018-01-06T08:51:07.492Z,29
2018-01-06T08:52:10.439Z,29
2018-01-06T08:53:10.792Z,29
2018-01-06T08:54:07.944Z,29
2018-01-06T08:55:10.896Z,29
2018-01-06T08:56:08.071Z,29
2018-01-06T08:57:10.683Z,29
2018-01-06T08:58:08.219Z,29
2018-01-06T08:59:10.756Z,29.1
2018-01-06T09:00:08.026Z,29.1
2018-01-06T09:01:08.365Z,29
2018-01-06T09:02:08.105Z,29.1
2018-01-06T09:03:11.318Z,29.1
2018-01-06T09:04:08.199Z,29.1
2018-01-06T09:05:11.492Z,29.1
2018-01-06T09:06:08.219Z,29.1
2018-01-06T09:07:08.613Z,29.1
2018-01-06T09:08:11.595Z,29.2
2018-01-06T09:09:11.657Z,29.2
2018-01-06T09:10:08.608Z,29.2
2018-01-06T09:11:08.907Z,29.2
2018-01-06T09:12:11.818Z,29.2
2018-01-06T09:13:08.949Z,29.2
2018-01-06T09:14:11.860Z,29.2
2018-01-06T09:15:08.730Z,29.2
2018-01-06T09:16:08.788Z,29.2
2018-01-06T09:17:09.210Z,29.3
2018-01-06T09:18:09.172Z,29.3
2018-01-06T09:19:12.166Z,29.2
2018-01-06T09:20:09.044Z,29.3
2018-01-06T09:21:09.374Z,29.3
2018-01-06T09:22:12.283Z,29.3
2018-01-06T09:23:09.189Z,29.3
2018-01-06T09:24:09.196Z,29.3
2018-01-06T09:25:12.525Z,29.4
2018-01-06T09:26:12.552Z,29.4
2018-01-06T09:27:09.734Z,29.4
2018-01-06T09:28:09.819Z,29.4
2018-01-06T09:29:10.897Z,29.4
2018-01-06T09:30:09.914Z,29.4
2018-01-06T09:31:09.638Z,29.4
2018-01-06T09:32:09.749Z,29.4
2018-01-06T09:33:10.138Z,29.4
2018-01-06T09:34:09.850Z,29.3
2018-01-06T09:35:10.546Z,29.3
2018-01-06T09:36:09.923Z,29.3
2018-01-06T09:37:09.945Z,29.3
2018-01-06T09:38:10.348Z,29.3
2018-01-06T09:39:10.365Z,29.3
2018-01-06T09:40:10.471Z,29.3
2018-01-06T09:41:10.147Z,29.3
2018-01-06T09:42:10.226Z,29.3
2018-01-06T09:43:10.293Z,29.3
2018-01-06T09:44:13.507Z,29.4
2018-01-06T09:45:13.169Z,29.3
2018-01-06T09:46:10.707Z,29.4
2018-01-06T09:47:13.667Z,29.4
2018-01-06T09:48:10.390Z,29.4
2018-01-06T09:49:10.791Z,29.4
2018-01-06T09:50:10.526Z,29.4
2018-01-06T09:51:10.978Z,29.4
2018-01-06T09:52:11.034Z,29.4
2018-01-06T09:53:13.945Z,29.4
2018-01-06T09:54:13.678Z,29.5
2018-01-06T09:55:14.024Z,29.5
2018-01-06T09:56:11.187Z,29.5
2018-01-06T09:57:10.975Z,29.5
2018-01-06T09:58:14.250Z,29.5
2018-01-06T09:59:11.064Z,29.5
2018-01-06T10:00:11.413Z,29.5
2018-01-06T10:01:11.225Z,29.6
2018-01-06T10:02:14.466Z,29.6
2018-01-06T10:03:14.212Z,29.6
2018-01-06T10:04:11.667Z,29.7
2018-01-06T10:05:11.389Z,29.7
2018-01-06T10:06:14.626Z,29.7
2018-01-06T10:07:11.490Z,29.7
2018-01-06T10:08:14.734Z,29.7
2018-01-06T10:09:11.571Z,29.7
2018-01-06T10:10:11.983Z,29.7
2018-01-06T10:11:14.935Z,29.6
2018-01-06T10:12:11.701Z,29.5
2018-01-06T10:13:15.039Z,29.5
2018-01-06T10:14:11.865Z,29.5
2018-01-06T10:15:15.054Z,29.5
2018-01-06T10:16:11.965Z,29.5
2018-01-06T10:17:12.220Z,29.5
2018-01-06T10:18:12.233Z,29.5
2018-01-06T10:19:11.921Z,29.4
2018-01-06T10:20:12.027Z,29.4
2018-01-06T10:21:12.135Z,29.4
2018-01-06T10:22:12.224Z,29.5
2018-01-06T10:23:15.174Z,29.5
2018-01-06T10:24:12.562Z,29.5
2018-01-06T10:25:15.504Z,29.5
2018-01-06T10:26:12.297Z,29.5
2018-01-06T10:27:15.256Z,29.6
2018-01-06T10:28:15.569Z,29.6
2018-01-06T10:29:15.279Z,29.6
2018-01-06T10:30:15.753Z,29.6
2018-01-06T10:31:12.758Z,29.6
2018-01-06T10:32:12.604Z,29.5
2018-01-06T10:33:15.876Z,29.6
2018-01-06T10:34:15.518Z,29.6
2018-01-06T10:35:15.567Z,29.5
2018-01-06T10:36:12.775Z,29.6
2018-01-06T10:37:12.712Z,29.6
2018-01-06T10:38:12.827Z,29.6
2018-01-06T10:39:12.914Z,29.6
2018-01-06T10:40:16.053Z,29.6
2018-01-06T10:41:12.915Z,29.6
2018-01-06T10:42:13.062Z,29.6
2018-01-06T10:43:15.970Z,29.6
2018-01-06T10:44:13.114Z,29.6
2018-01-06T10:45:13.154Z,29.6
2018-01-06T10:46:16.065Z,29.6
2018-01-06T10:47:13.234Z,29.6
2018-01-06T10:48:16.474Z,29.7
2018-01-06T10:49:13.300Z,29.7
2018-01-06T10:50:13.319Z,29.7
2018-01-06T10:51:13.681Z,29.7
2018-01-06T10:52:13.464Z,29.8
2018-01-06T10:53:13.538Z,29.8
2018-01-06T10:54:13.495Z,29.8
2018-01-06T10:55:16.794Z,29.8
2018-01-06T10:56:16.485Z,29.8
2018-01-06T10:57:16.852Z,29.8
2018-01-06T10:58:14.094Z,29.8
2018-01-06T10:59:14.168Z,29.8
2018-01-06T11:00:14.097Z,29.8
2018-01-06T11:01:13.836Z,29.8
2018-01-06T11:02:17.098Z,29.8
2018-01-06T11:03:17.083Z,29.8
2018-01-06T11:04:17.195Z,29.8
2018-01-06T11:05:17.189Z,29.8
2018-01-06T11:06:17.212Z,29.8
2018-01-06T11:07:17.241Z,29.8
2018-01-06T11:08:14.373Z,29.8
2018-01-06T11:09:17.374Z,29.8
2018-01-06T11:10:14.142Z,29.8
2018-01-06T11:11:14.272Z,29.8
2018-01-06T11:12:14.236Z,29.8
2018-01-06T11:13:17.601Z,29.7
2018-01-06T11:14:14.717Z,29.7
2018-01-06T11:15:14.717Z,29.7
2018-01-06T11:16:14.742Z,29.7
2018-01-06T11:17:14.468Z,29.7
2018-01-06T11:18:14.496Z,29.7
2018-01-06T11:19:17.741Z,29.6
2018-01-06T11:20:17.414Z,29.6
2018-01-06T11:21:14.854Z,29.6
2018-01-06T11:22:14.583Z,29.6
2018-01-06T11:23:14.637Z,29.6
2018-01-06T11:24:14.662Z,29.6
2018-01-06T11:25:17.592Z,29.6
2018-01-06T11:26:15.023Z,29.6
2018-01-06T11:27:18.023Z,29.6
2018-01-06T11:28:14.817Z,29.6
2018-01-06T11:29:14.841Z,29.6
2018-01-06T11:30:15.278Z,29.5
2018-01-06T11:31:15.044Z,29.5
2018-01-06T11:32:15.327Z,29.5
2018-01-06T11:33:18.420Z,29.5
2018-01-06T11:34:18.435Z,29.5
2018-01-06T11:35:18.105Z,29.5
2018-01-06T11:36:15.584Z,29.5
2018-01-06T11:37:15.612Z,29.4
2018-01-06T11:38:15.664Z,29.5
2018-01-06T11:39:18.594Z,29.4
2018-01-06T11:40:18.572Z,29.5
2018-01-06T11:41:15.581Z,29.4
2018-01-06T11:42:15.560Z,29.5
2018-01-06T11:43:15.911Z,29.5
2018-01-06T11:44:18.541Z,29.5
2018-01-06T11:45:18.958Z,29.4
2018-01-06T11:46:16.118Z,29.4
2018-01-06T11:47:15.827Z,29.4
2018-01-06T11:48:16.259Z,29.4
2018-01-06T11:49:16.364Z,29.4
2018-01-06T11:50:16.046Z,29.4
2018-01-06T11:51:19.272Z,29.4
2018-01-06T11:52:18.999Z,29.4
2018-01-06T11:53:16.146Z,29.4
2018-01-06T11:54:19.417Z,29.5
2018-01-06T11:55:16.176Z,29.4
2018-01-06T11:56:16.224Z,29.4
2018-01-06T11:57:19.402Z,29.4
2018-01-06T11:58:16.579Z,29.4
2018-01-06T11:59:19.550Z,29.4
2018-01-06T12:00:16.388Z,29.4
2018-01-06T12:01:19.277Z,29.4
2018-01-06T12:02:19.381Z,29.4
2018-01-06T12:03:16.486Z,29.4
2018-01-06T12:04:19.465Z,29.4
2018-01-06T12:05:16.979Z,29.4
2018-01-06T12:06:19.936Z,29.4
2018-01-06T12:07:16.723Z,29.4
2018-01-06T12:08:17.071Z,29.4
2018-01-06T12:09:19.620Z,29.4
2018-01-06T12:10:19.723Z,29.4
2018-01-06T12:11:20.146Z,29.4
2018-01-06T12:12:16.970Z,29.4
2018-01-06T12:13:20.213Z,29.4
2018-01-06T12:14:17.325Z,29.4
2018-01-06T12:15:17.092Z,29.4
2018-01-06T12:16:20.402Z,29.5
2018-01-06T12:17:17.163Z,29.5
2018-01-06T12:18:17.544Z,29.5
2018-01-06T12:19:20.155Z,29.5
2018-01-06T12:20:20.549Z,29.5
2018-01-06T12:21:20.614Z,29.4
2018-01-06T12:22:17.425Z,29.4
2018-01-06T12:23:20.735Z,29.5
2018-01-06T12:24:20.848Z,29.4
2018-01-06T12:25:17.934Z,29.4
2018-01-06T12:26:17.658Z,29.4
2018-01-06T12:27:18.077Z,29.4
2018-01-06T12:28:17.841Z,29.4
2018-01-06T12:29:20.951Z,29.4
2018-01-06T12:30:21.082Z,29.4
2018-01-06T12:31:17.891Z,29.4
2018-01-06T12:32:21.190Z,29.4
2018-01-06T12:33:18.066Z,29.4
2018-01-06T12:34:20.970Z,29.4
2018-01-06T12:35:21.280Z,29.4
2018-01-06T12:36:18.081Z,29.4
2018-01-06T12:37:21.417Z,29.4
2018-01-06T12:38:18.287Z,29.4
2018-01-06T12:39:21.521Z,29.4
2018-01-06T12:40:18.372Z,29.4
2018-01-06T12:41:18.642Z,29.4
2018-01-06T12:42:21.238Z,29.4
2018-01-06T12:43:18.435Z,29.4
2018-01-06T12:44:18.502Z,29.4
2018-01-06T12:45:21.453Z,29.4
2018-01-06T12:46:18.472Z,29.4
2018-01-06T12:47:18.638Z,29.4
2018-01-06T12:48:18.878Z,29.4
2018-01-06T12:49:21.880Z,29.3
2018-01-06T12:50:18.750Z,29.4
2018-01-06T12:51:18.778Z,29.3
2018-01-06T12:52:19.050Z,29.4
2018-01-06T12:53:18.826Z,29.4
2018-01-06T12:54:18.846Z,29.4
2018-01-06T12:55:19.162Z,29.4
2018-01-06T12:56:18.947Z,29.4
2018-01-06T12:57:22.182Z,29.3
2018-01-06T12:58:19.049Z,29.4
2018-01-06T12:59:19.037Z,29.4
2018-01-06T13:00:19.472Z,29.4
2018-01-06T13:01:22.376Z,29.3
2018-01-06T13:02:19.196Z,29.4
2018-01-06T13:03:19.258Z,29.4
2018-01-06T13:04:22.240Z,29.4
2018-01-06T13:05:22.512Z,29.4
2018-01-06T13:06:19.456Z,29.4
2018-01-06T13:07:19.459Z,29.4
2018-01-06T13:08:19.517Z,29.3
2018-01-06T13:09:22.454Z,29.4
2018-01-06T13:10:22.741Z,29.4
2018-01-06T13:11:19.588Z,29.4
2018-01-06T13:12:22.510Z,29.4
2018-01-06T13:13:19.998Z,29.4
2018-01-06T13:14:19.781Z,29.4
2018-01-06T13:15:20.055Z,29.4
2018-01-06T13:16:22.994Z,29.3
2018-01-06T13:17:19.807Z,29.4
2018-01-06T13:18:19.800Z,29.4
2018-01-06T13:19:19.873Z,29.4
2018-01-06T13:20:19.913Z,29.4
2018-01-06T13:21:23.250Z,29.4
2018-01-06T13:22:20.069Z,29.3
2018-01-06T13:23:20.354Z,29.3
2018-01-06T13:24:20.394Z,29.3
2018-01-06T13:25:20.137Z,29.3
2018-01-06T13:26:20.183Z,29.3
2018-01-06T13:27:20.578Z,29.3
2018-01-06T13:28:23.186Z,29.3
2018-01-06T13:29:20.403Z,29.3
2018-01-06T13:30:20.419Z,29.3
2018-01-06T13:31:20.529Z,29.3
2018-01-06T13:32:23.768Z,29.3
2018-01-06T13:33:20.611Z,29.3
2018-01-06T13:34:20.616Z,29.3
2018-01-06T13:35:20.710Z,29.3
2018-01-06T13:36:21.056Z,29.3
2018-01-06T13:37:21.055Z,29.3
2018-01-06T13:38:23.778Z,29.3
2018-01-06T13:39:21.295Z,29.3
2018-01-06T13:40:21.039Z,29.4
2018-01-06T13:41:21.082Z,29.4
2018-01-06T13:42:21.093Z,29.4
2018-01-06T13:43:21.223Z,29.4
2018-01-06T13:44:21.249Z,29.3
2018-01-06T13:45:21.526Z,29.4
2018-01-06T13:46:21.321Z,29.4
2018-01-06T13:47:21.689Z,29.3
2018-01-06T13:48:24.630Z,29.3
2018-01-06T13:49:21.742Z,29.3
2018-01-06T13:50:21.465Z,29.3
2018-01-06T13:51:21.483Z,29.3
2018-01-06T13:52:24.469Z,29.3
2018-01-06T13:53:21.944Z,29.3
2018-01-06T13:54:21.680Z,29.3
2018-01-06T13:55:21.996Z,29.3
2018-01-06T13:56:24.934Z,29.3
2018-01-06T13:57:21.801Z,29.3
2018-01-06T13:58:25.202Z,29.3
2018-01-06T13:59:21.843Z,29.3
2018-01-06T14:00:21.899Z,29.3
2018-01-06T14:01:21.930Z,29.3
2018-01-06T14:02:22.292Z,29.3
2018-01-06T14:03:22.348Z,29.3
2018-01-06T14:04:25.293Z,29.2
2018-01-06T14:05:22.350Z,29.2
2018-01-06T14:06:22.231Z,29.2